Southtown, Indiana
Current Conditions -  °F | °C
As of 4:54 PM on Tuesday 21 Oct 2014 (Local Time) from KFWA Reporting Station
Overcast Overcast  
Wind Chill: 50°   Ceiling: 3600
Heat Index: 50°   Visibility: 10mi
Dew Point: 41°   Wind: 13mph
Humidity: 71%   Direction: 20°NNE
Pressure: 30.12"   Gusts: NA
Location:  41.0028°N, 85.0396°W
Report Text: KFWA 212054Z 02011KT 10SM FEW030 OVC036 10/05 A3012 RMK AO2 SLP202 T01000050 53010
Loading
Personal Weather Stations






























Interactive Weather Map
Tropical Storm Tracking
New forecast layout! Learn more

10-Day Weather Forecast

Advertisements
Track Severe Weather on mobile